sensor_id;sensor_type;location;lat;lon;timestamp;P1;durP1;ratioP1;P2;durP2;ratioP2
3689;SDS011;1861;50.240;8.596;2023-02-28T00:01:14;2.13;;;1.77;;
3689;SDS011;1861;50.240;8.596;2023-02-28T00:03:42;2.47;;;1.83;;
3689;SDS011;1861;50.240;8.596;2023-02-28T00:06:10;2.47;;;2.17;;
3689;SDS011;1861;50.240;8.596;2023-02-28T00:08:40;2.27;;;2.07;;
3689;SDS011;1861;50.240;8.596;2023-02-28T00:11:09;2.47;;;2.27;;
3689;SDS011;1861;50.240;8.596;2023-02-28T00:13:38;3.80;;;1.90;;
3689;SDS011;1861;50.240;8.596;2023-02-28T00:16:08;2.30;;;1.87;;
3689;SDS011;1861;50.240;8.596;2023-02-28T00:18:39;2.80;;;2.20;;
3689;SDS011;1861;50.240;8.596;2023-02-28T00:21:08;3.87;;;1.93;;
3689;SDS011;1861;50.240;8.596;2023-02-28T00:23:36;2.37;;;2.17;;
3689;SDS011;1861;50.240;8.596;2023-02-28T00:26:06;3.07;;;2.03;;
3689;SDS011;1861;50.240;8.596;2023-02-28T00:28:35;3.00;;;2.40;;
3689;SDS011;1861;50.240;8.596;2023-02-28T00:31:04;2.93;;;2.20;;
3689;SDS011;1861;50.240;8.596;2023-02-28T00:33:34;4.37;;;2.23;;
3689;SDS011;1861;50.240;8.596;2023-02-28T00:36:03;1.73;;;1.63;;
3689;SDS011;1861;50.240;8.596;2023-02-28T00:38:35;3.60;;;2.23;;
3689;SDS011;1861;50.240;8.596;2023-02-28T00:41:03;2.60;;;2.40;;
3689;SDS011;1861;50.240;8.596;2023-02-28T00:43:34;4.77;;;2.53;;
3689;SDS011;1861;50.240;8.596;2023-02-28T00:46:04;2.10;;;1.97;;
3689;SDS011;1861;50.240;8.596;2023-02-28T00:48:32;3.97;;;2.17;;
3689;SDS011;1861;50.240;8.596;2023-02-28T00:51:00;3.30;;;2.53;;
3689;SDS011;1861;50.240;8.596;2023-02-28T00:53:30;1.93;;;1.73;;
3689;SDS011;1861;50.240;8.596;2023-02-28T00:55:58;6.30;;;2.57;;
3689;SDS011;1861;50.240;8.596;2023-02-28T00:58:28;2.87;;;2.60;;
3689;SDS011;1861;50.240;8.596;2023-02-28T01:00:56;2.80;;;2.30;;
3689;SDS011;1861;50.240;8.596;2023-02-28T01:03:25;3.13;;;2.10;;
3689;SDS011;1861;50.240;8.596;2023-02-28T01:05:53;2.63;;;2.43;;
3689;SDS011;1861;50.240;8.596;2023-02-28T01:08:21;3.53;;;1.87;;
3689;SDS011;1861;50.240;8.596;2023-02-28T01:10:49;2.70;;;2.10;;
3689;SDS011;1861;50.240;8.596;2023-02-28T01:13:18;5.07;;;2.33;;
3689;SDS011;1861;50.240;8.596;2023-02-28T01:15:50;4.23;;;2.40;;
3689;SDS011;1861;50.240;8.596;2023-02-28T01:18:21;2.43;;;2.23;;
3689;SDS011;1861;50.240;8.596;2023-02-28T01:20:49;2.40;;;2.20;;
3689;SDS011;1861;50.240;8.596;2023-02-28T01:23:18;2.80;;;2.17;;
3689;SDS011;1861;50.240;8.596;2023-02-28T01:25:47;4.37;;;3.73;;
3689;SDS011;1861;50.240;8.596;2023-02-28T01:28:16;4.70;;;2.30;;
3689;SDS011;1861;50.240;8.596;2023-02-28T01:30:47;2.30;;;2.10;;
3689;SDS011;1861;50.240;8.596;2023-02-28T01:33:17;4.17;;;2.53;;
3689;SDS011;1861;50.240;8.596;2023-02-28T01:35:45;2.83;;;2.00;;
3689;SDS011;1861;50.240;8.596;2023-02-28T01:38:13;2.93;;;2.00;;
3689;SDS011;1861;50.240;8.596;2023-02-28T01:40:48;5.87;;;2.20;;
3689;SDS011;1861;50.240;8.596;2023-02-28T01:43:20;2.53;;;2.27;;
3689;SDS011;1861;50.240;8.596;2023-02-28T01:45:51;4.27;;;2.17;;
3689;SDS011;1861;50.240;8.596;2023-02-28T01:48:20;3.23;;;2.00;;
3689;SDS011;1861;50.240;8.596;2023-02-28T01:50:52;2.20;;;2.10;;
3689;SDS011;1861;50.240;8.596;2023-02-28T01:53:23;2.23;;;2.03;;
3689;SDS011;1861;50.240;8.596;2023-02-28T01:55:55;1.70;;;1.60;;
3689;SDS011;1861;50.240;8.596;2023-02-28T01:58:24;2.37;;;2.10;;
3689;SDS011;1861;50.240;8.596;2023-02-28T02:00:53;2.23;;;2.00;;
3689;SDS011;1861;50.240;8.596;2023-02-28T02:03:22;1.97;;;1.83;;
3689;SDS011;1861;50.240;8.596;2023-02-28T02:05:50;5.07;;;2.27;;
3689;SDS011;1861;50.240;8.596;2023-02-28T02:08:19;3.53;;;2.40;;
3689;SDS011;1861;50.240;8.596;2023-02-28T02:10:50;3.17;;;1.70;;
3689;SDS011;1861;50.240;8.596;2023-02-28T02:13:30;4.00;;;1.97;;
3689;SDS011;1861;50.240;8.596;2023-02-28T02:16:24;2.23;;;2.07;;
3689;SDS011;1861;50.240;8.596;2023-02-28T02:19:04;2.23;;;2.00;;
3689;SDS011;1861;50.240;8.596;2023-02-28T02:21:51;3.27;;;2.30;;
3689;SDS011;1861;50.240;8.596;2023-02-28T02:24:44;2.90;;;2.27;;
3689;SDS011;1861;50.240;8.596;2023-02-28T02:27:23;1.77;;;1.63;;
3689;SDS011;1861;50.240;8.596;2023-02-28T02:33:07;3.60;;;1.80;;
3689;SDS011;1861;50.240;8.596;2023-02-28T02:35:55;6.53;;;2.30;;
3689;SDS011;1861;50.240;8.596;2023-02-28T02:38:28;1.80;;;1.70;;
3689;SDS011;1861;50.240;8.596;2023-02-28T02:41:04;2.20;;;1.77;;
3689;SDS011;1861;50.240;8.596;2023-02-28T02:43:39;4.70;;;2.93;;
3689;SDS011;1861;50.240;8.596;2023-02-28T02:46:14;2.50;;;2.23;;
3689;SDS011;1861;50.240;8.596;2023-02-28T02:48:46;1.80;;;1.70;;
3689;SDS011;1861;50.240;8.596;2023-02-28T02:51:18;2.70;;;2.40;;
3689;SDS011;1861;50.240;8.596;2023-02-28T02:53:51;4.50;;;2.00;;
3689;SDS011;1861;50.240;8.596;2023-02-28T02:56:24;1.90;;;1.80;;
3689;SDS011;1861;50.240;8.596;2023-02-28T02:58:56;3.80;;;2.30;;
3689;SDS011;1861;50.240;8.596;2023-02-28T03:01:29;4.10;;;2.10;;
3689;SDS011;1861;50.240;8.596;2023-02-28T03:04:00;2.60;;;2.00;;
3689;SDS011;1861;50.240;8.596;2023-02-28T03:06:31;2.63;;;2.17;;
3689;SDS011;1861;50.240;8.596;2023-02-28T03:08:59;4.80;;;1.97;;
3689;SDS011;1861;50.240;8.596;2023-02-28T03:11:28;3.50;;;2.30;;
3689;SDS011;1861;50.240;8.596;2023-02-28T03:14:11;3.67;;;1.97;;
3689;SDS011;1861;50.240;8.596;2023-02-28T03:17:00;2.43;;;2.23;;
3689;SDS011;1861;50.240;8.596;2023-02-28T03:19:51;2.43;;;2.23;;
3689;SDS011;1861;50.240;8.596;2023-02-28T03:22:42;2.63;;;2.10;;
3689;SDS011;1861;50.240;8.596;2023-02-28T03:25:20;2.83;;;2.07;;
3689;SDS011;1861;50.240;8.596;2023-02-28T03:27:57;3.73;;;2.30;;
3689;SDS011;1861;50.240;8.596;2023-02-28T03:30:33;1.93;;;1.83;;
3689;SDS011;1861;50.240;8.596;2023-02-28T03:33:08;2.80;;;2.30;;
3689;SDS011;1861;50.240;8.596;2023-02-28T03:35:41;2.20;;;1.93;;
3689;SDS011;1861;50.240;8.596;2023-02-28T03:38:15;2.77;;;2.10;;
3689;SDS011;1861;50.240;8.596;2023-02-28T03:40:48;3.30;;;1.90;;
3689;SDS011;1861;50.240;8.596;2023-02-28T03:43:20;2.87;;;2.33;;
3689;SDS011;1861;50.240;8.596;2023-02-28T03:45:52;4.90;;;1.87;;
3689;SDS011;1861;50.240;8.596;2023-02-28T03:48:23;4.80;;;2.20;;
3689;SDS011;1861;50.240;8.596;2023-02-28T03:50:57;3.63;;;2.33;;
3689;SDS011;1861;50.240;8.596;2023-02-28T03:53:29;2.33;;;1.83;;
3689;SDS011;1861;50.240;8.596;2023-02-28T03:56:01;5.07;;;2.10;;
3689;SDS011;1861;50.240;8.596;2023-02-28T03:58:36;2.47;;;2.27;;
3689;SDS011;1861;50.240;8.596;2023-02-28T04:01:09;3.40;;;2.23;;
3689;SDS011;1861;50.240;8.596;2023-02-28T04:03:40;1.80;;;1.70;;
3689;SDS011;1861;50.240;8.596;2023-02-28T04:06:14;4.33;;;1.83;;
3689;SDS011;1861;50.240;8.596;2023-02-28T04:08:45;2.70;;;1.90;;
3689;SDS011;1861;50.240;8.596;2023-02-28T04:11:17;2.33;;;1.67;;
3689;SDS011;1861;50.240;8.596;2023-02-28T04:13:48;2.33;;;2.13;;
3689;SDS011;1861;50.240;8.596;2023-02-28T04:16:17;2.80;;;2.13;;
3689;SDS011;1861;50.240;8.596;2023-02-28T04:19:00;4.50;;;1.93;;
3689;SDS011;1861;50.240;8.596;2023-02-28T04:21:30;1.87;;;1.73;;
3689;SDS011;1861;50.240;8.596;2023-02-28T04:24:01;2.10;;;1.90;;
3689;SDS011;1861;50.240;8.596;2023-02-28T04:26:29;2.23;;;2.00;;
3689;SDS011;1861;50.240;8.596;2023-02-28T04:28:58;3.03;;;2.00;;
3689;SDS011;1861;50.240;8.596;2023-02-28T04:31:26;2.53;;;2.33;;
3689;SDS011;1861;50.240;8.596;2023-02-28T04:33:55;2.10;;;1.90;;
3689;SDS011;1861;50.240;8.596;2023-02-28T04:36:24;1.70;;;1.60;;
3689;SDS011;1861;50.240;8.596;2023-02-28T04:38:52;2.77;;;1.90;;
3689;SDS011;1861;50.240;8.596;2023-02-28T04:41:22;4.40;;;2.00;;
3689;SDS011;1861;50.240;8.596;2023-02-28T04:43:50;2.57;;;1.93;;
3689;SDS011;1861;50.240;8.596;2023-02-28T04:46:19;1.63;;;1.53;;
3689;SDS011;1861;50.240;8.596;2023-02-28T04:48:47;1.67;;;1.50;;
3689;SDS011;1861;50.240;8.596;2023-02-28T04:51:16;1.77;;;1.67;;
3689;SDS011;1861;50.240;8.596;2023-02-28T04:53:46;2.30;;;1.90;;
3689;SDS011;1861;50.240;8.596;2023-02-28T04:56:16;2.03;;;1.77;;
3689;SDS011;1861;50.240;8.596;2023-02-28T04:58:46;3.10;;;1.43;;
3689;SDS011;1861;50.240;8.596;2023-02-28T05:01:18;2.50;;;2.10;;
3689;SDS011;1861;50.240;8.596;2023-02-28T05:03:48;2.60;;;1.47;;
3689;SDS011;1861;50.240;8.596;2023-02-28T05:06:18;1.60;;;1.50;;
3689;SDS011;1861;50.240;8.596;2023-02-28T05:08:47;2.23;;;1.73;;
3689;SDS011;1861;50.240;8.596;2023-02-28T05:11:16;4.03;;;1.40;;
3689;SDS011;1861;50.240;8.596;2023-02-28T05:13:48;2.03;;;1.50;;
3689;SDS011;1861;50.240;8.596;2023-02-28T05:16:16;1.50;;;1.40;;
3689;SDS011;1861;50.240;8.596;2023-02-28T05:18:45;1.60;;;1.33;;
3689;SDS011;1861;50.240;8.596;2023-02-28T05:21:23;1.63;;;1.53;;
3689;SDS011;1861;50.240;8.596;2023-02-28T05:23:54;2.27;;;1.77;;
3689;SDS011;1861;50.240;8.596;2023-02-28T05:26:23;2.00;;;1.80;;
3689;SDS011;1861;50.240;8.596;2023-02-28T05:28:53;3.83;;;1.90;;
3689;SDS011;1861;50.240;8.596;2023-02-28T05:31:21;4.87;;;2.00;;
3689;SDS011;1861;50.240;8.596;2023-02-28T05:33:50;5.67;;;2.10;;
3689;SDS011;1861;50.240;8.596;2023-02-28T05:36:19;2.43;;;1.80;;
3689;SDS011;1861;50.240;8.596;2023-02-28T05:38:47;2.50;;;1.73;;
3689;SDS011;1861;50.240;8.596;2023-02-28T05:41:15;2.43;;;2.10;;
3689;SDS011;1861;50.240;8.596;2023-02-28T05:43:45;2.07;;;1.50;;
3689;SDS011;1861;50.240;8.596;2023-02-28T05:46:15;2.47;;;2.00;;
3689;SDS011;1861;50.240;8.596;2023-02-28T05:48:46;2.87;;;1.90;;
3689;SDS011;1861;50.240;8.596;2023-02-28T05:51:15;2.10;;;1.70;;
3689;SDS011;1861;50.240;8.596;2023-02-28T05:53:43;2.70;;;1.80;;
3689;SDS011;1861;50.240;8.596;2023-02-28T05:56:11;2.77;;;1.93;;
3689;SDS011;1861;50.240;8.596;2023-02-28T05:58:39;2.23;;;1.83;;
3689;SDS011;1861;50.240;8.596;2023-02-28T06:01:21;3.00;;;2.40;;
3689;SDS011;1861;50.240;8.596;2023-02-28T06:03:51;2.90;;;2.60;;
3689;SDS011;1861;50.240;8.596;2023-02-28T06:06:19;3.23;;;2.23;;
3689;SDS011;1861;50.240;8.596;2023-02-28T06:08:47;2.30;;;2.10;;
3689;SDS011;1861;50.240;8.596;2023-02-28T06:11:15;3.07;;;2.60;;
3689;SDS011;1861;50.240;8.596;2023-02-28T06:13:46;4.60;;;2.10;;
3689;SDS011;1861;50.240;8.596;2023-02-28T06:16:14;8.33;;;2.70;;
3689;SDS011;1861;50.240;8.596;2023-02-28T06:18:44;2.43;;;1.70;;
3689;SDS011;1861;50.240;8.596;2023-02-28T06:21:12;3.97;;;2.43;;
3689;SDS011;1861;50.240;8.596;2023-02-28T06:23:40;1.80;;;1.70;;
3689;SDS011;1861;50.240;8.596;2023-02-28T06:26:08;2.60;;;2.10;;
3689;SDS011;1861;50.240;8.596;2023-02-28T06:28:36;2.87;;;2.33;;
3689;SDS011;1861;50.240;8.596;2023-02-28T06:31:05;3.80;;;2.20;;
3689;SDS011;1861;50.240;8.596;2023-02-28T06:33:35;3.50;;;2.33;;
3689;SDS011;1861;50.240;8.596;2023-02-28T06:36:05;2.73;;;2.17;;
3689;SDS011;1861;50.240;8.596;2023-02-28T06:38:34;2.60;;;2.30;;
3689;SDS011;1861;50.240;8.596;2023-02-28T06:41:03;1.97;;;1.73;;
3689;SDS011;1861;50.240;8.596;2023-02-28T06:43:32;2.10;;;1.90;;
3689;SDS011;1861;50.240;8.596;2023-02-28T06:46:02;3.20;;;2.23;;
3689;SDS011;1861;50.240;8.596;2023-02-28T06:48:32;2.00;;;1.90;;
3689;SDS011;1861;50.240;8.596;2023-02-28T06:51:02;2.30;;;1.90;;
3689;SDS011;1861;50.240;8.596;2023-02-28T06:53:33;3.20;;;1.93;;
3689;SDS011;1861;50.240;8.596;2023-02-28T06:56:03;2.13;;;1.90;;
3689;SDS011;1861;50.240;8.596;2023-02-28T06:58:32;3.80;;;2.57;;
3689;SDS011;1861;50.240;8.596;2023-02-28T07:01:01;3.17;;;2.00;;
3689;SDS011;1861;50.240;8.596;2023-02-28T07:03:30;3.10;;;2.50;;
3689;SDS011;1861;50.240;8.596;2023-02-28T07:06:00;3.87;;;2.67;;
3689;SDS011;1861;50.240;8.596;2023-02-28T07:08:30;3.80;;;2.40;;
3689;SDS011;1861;50.240;8.596;2023-02-28T07:10:59;4.10;;;2.90;;
3689;SDS011;1861;50.240;8.596;2023-02-28T07:13:27;3.97;;;2.63;;
3689;SDS011;1861;50.240;8.596;2023-02-28T07:15:56;4.63;;;3.10;;
3689;SDS011;1861;50.240;8.596;2023-02-28T07:18:25;5.40;;;3.00;;
3689;SDS011;1861;50.240;8.596;2023-02-28T07:20:54;3.43;;;2.90;;
3689;SDS011;1861;50.240;8.596;2023-02-28T07:23:22;5.00;;;3.30;;
3689;SDS011;1861;50.240;8.596;2023-02-28T07:25:52;3.57;;;2.90;;
3689;SDS011;1861;50.240;8.596;2023-02-28T07:28:20;4.40;;;3.00;;
3689;SDS011;1861;50.240;8.596;2023-02-28T07:30:48;7.90;;;3.10;;
3689;SDS011;1861;50.240;8.596;2023-02-28T07:33:16;2.80;;;2.50;;
3689;SDS011;1861;50.240;8.596;2023-02-28T07:35:44;5.00;;;3.20;;
3689;SDS011;1861;50.240;8.596;2023-02-28T07:38:13;3.03;;;2.73;;
3689;SDS011;1861;50.240;8.596;2023-02-28T07:40:41;3.73;;;2.97;;
3689;SDS011;1861;50.240;8.596;2023-02-28T07:43:10;3.70;;;2.70;;
3689;SDS011;1861;50.240;8.596;2023-02-28T07:45:38;7.87;;;3.30;;
3689;SDS011;1861;50.240;8.596;2023-02-28T07:48:06;2.73;;;2.50;;
3689;SDS011;1861;50.240;8.596;2023-02-28T07:50:36;5.13;;;3.10;;
3689;SDS011;1861;50.240;8.596;2023-02-28T07:53:04;3.57;;;2.80;;
3689;SDS011;1861;50.240;8.596;2023-02-28T07:55:32;5.33;;;3.23;;
3689;SDS011;1861;50.240;8.596;2023-02-28T07:58:00;7.03;;;2.83;;
3689;SDS011;1861;50.240;8.596;2023-02-28T08:00:29;3.23;;;2.93;;
3689;SDS011;1861;50.240;8.596;2023-02-28T08:02:59;4.10;;;2.50;;
3689;SDS011;1861;50.240;8.596;2023-02-28T08:05:27;2.70;;;2.50;;
3689;SDS011;1861;50.240;8.596;2023-02-28T08:07:57;3.20;;;2.80;;
3689;SDS011;1861;50.240;8.596;2023-02-28T08:10:25;3.50;;;2.60;;
3689;SDS011;1861;50.240;8.596;2023-02-28T08:12:53;5.10;;;2.83;;
3689;SDS011;1861;50.240;8.596;2023-02-28T08:15:21;5.10;;;3.10;;
3689;SDS011;1861;50.240;8.596;2023-02-28T08:17:50;5.50;;;2.93;;
3689;SDS011;1861;50.240;8.596;2023-02-28T08:20:19;3.53;;;2.67;;
3689;SDS011;1861;50.240;8.596;2023-02-28T08:22:47;9.23;;;3.60;;
3689;SDS011;1861;50.240;8.596;2023-02-28T08:25:15;6.00;;;3.43;;
3689;SDS011;1861;50.240;8.596;2023-02-28T08:27:43;4.57;;;3.00;;
3689;SDS011;1861;50.240;8.596;2023-02-28T08:30:11;3.47;;;3.17;;
3689;SDS011;1861;50.240;8.596;2023-02-28T08:32:40;3.87;;;3.20;;
3689;SDS011;1861;50.240;8.596;2023-02-28T08:35:10;3.13;;;2.77;;
3689;SDS011;1861;50.240;8.596;2023-02-28T08:37:38;5.37;;;2.80;;
3689;SDS011;1861;50.240;8.596;2023-02-28T08:40:07;6.03;;;3.87;;
3689;SDS011;1861;50.240;8.596;2023-02-28T08:42:36;6.30;;;2.70;;
3689;SDS011;1861;50.240;8.596;2023-02-28T08:45:04;3.30;;;2.73;;
3689;SDS011;1861;50.240;8.596;2023-02-28T08:47:33;4.07;;;3.10;;
3689;SDS011;1861;50.240;8.596;2023-02-28T08:50:01;4.40;;;3.30;;
3689;SDS011;1861;50.240;8.596;2023-02-28T08:52:31;5.23;;;3.60;;
3689;SDS011;1861;50.240;8.596;2023-02-28T08:54:59;5.67;;;3.27;;
3689;SDS011;1861;50.240;8.596;2023-02-28T08:57:27;5.97;;;3.10;;
3689;SDS011;1861;50.240;8.596;2023-02-28T08:59:55;3.30;;;2.80;;
3689;SDS011;1861;50.240;8.596;2023-02-28T09:02:23;4.63;;;2.47;;
3689;SDS011;1861;50.240;8.596;2023-02-28T09:04:52;3.13;;;2.43;;
3689;SDS011;1861;50.240;8.596;2023-02-28T09:07:20;3.73;;;2.40;;
3689;SDS011;1861;50.240;8.596;2023-02-28T09:09:49;2.53;;;1.87;;
3689;SDS011;1861;50.240;8.596;2023-02-28T09:12:25;4.10;;;2.43;;
3689;SDS011;1861;50.240;8.596;2023-02-28T09:14:53;3.17;;;2.60;;
3689;SDS011;1861;50.240;8.596;2023-02-28T09:17:22;2.70;;;2.50;;
3689;SDS011;1861;50.240;8.596;2023-02-28T09:19:56;3.40;;;2.33;;
3689;SDS011;1861;50.240;8.596;2023-02-28T09:22:24;3.13;;;2.53;;
3689;SDS011;1861;50.240;8.596;2023-02-28T09:24:54;3.80;;;2.90;;
3689;SDS011;1861;50.240;8.596;2023-02-28T09:27:22;2.63;;;2.20;;
3689;SDS011;1861;50.240;8.596;2023-02-28T09:29:50;3.03;;;2.43;;
3689;SDS011;1861;50.240;8.596;2023-02-28T09:32:18;3.10;;;2.60;;
3689;SDS011;1861;50.240;8.596;2023-02-28T09:34:46;4.47;;;2.40;;
3689;SDS011;1861;50.240;8.596;2023-02-28T09:37:14;2.80;;;2.30;;
3689;SDS011;1861;50.240;8.596;2023-02-28T09:39:42;3.73;;;2.70;;
3689;SDS011;1861;50.240;8.596;2023-02-28T09:42:13;5.17;;;2.60;;
3689;SDS011;1861;50.240;8.596;2023-02-28T09:44:49;3.00;;;2.70;;
3689;SDS011;1861;50.240;8.596;2023-02-28T09:47:25;5.27;;;3.23;;
3689;SDS011;1861;50.240;8.596;2023-02-28T09:50:00;4.70;;;2.50;;
3689;SDS011;1861;50.240;8.596;2023-02-28T09:52:39;4.93;;;2.60;;
3689;SDS011;1861;50.240;8.596;2023-02-28T09:55:15;3.50;;;2.60;;
3689;SDS011;1861;50.240;8.596;2023-02-28T09:57:48;3.67;;;2.40;;
3689;SDS011;1861;50.240;8.596;2023-02-28T10:00:19;3.77;;;2.30;;
3689;SDS011;1861;50.240;8.596;2023-02-28T10:02:54;5.17;;;2.87;;
3689;SDS011;1861;50.240;8.596;2023-02-28T10:05:32;3.90;;;2.87;;
3689;SDS011;1861;50.240;8.596;2023-02-28T10:08:05;2.70;;;2.27;;
3689;SDS011;1861;50.240;8.596;2023-02-28T10:10:40;6.60;;;2.90;;
3689;SDS011;1861;50.240;8.596;2023-02-28T10:13:19;2.23;;;2.03;;
3689;SDS011;1861;50.240;8.596;2023-02-28T10:15:52;3.73;;;2.80;;
3689;SDS011;1861;50.240;8.596;2023-02-28T10:18:24;4.70;;;3.20;;
3689;SDS011;1861;50.240;8.596;2023-02-28T10:20:56;3.60;;;2.73;;
3689;SDS011;1861;50.240;8.596;2023-02-28T10:23:28;4.83;;;3.10;;
3689;SDS011;1861;50.240;8.596;2023-02-28T10:26:00;5.03;;;2.97;;
3689;SDS011;1861;50.240;8.596;2023-02-28T10:28:37;3.87;;;2.67;;
3689;SDS011;1861;50.240;8.596;2023-02-28T10:31:08;4.90;;;3.20;;
3689;SDS011;1861;50.240;8.596;2023-02-28T10:33:41;3.13;;;2.80;;
3689;SDS011;1861;50.240;8.596;2023-02-28T10:36:10;3.27;;;2.97;;
3689;SDS011;1861;50.240;8.596;2023-02-28T10:38:43;3.80;;;2.50;;
3689;SDS011;1861;50.240;8.596;2023-02-28T10:41:12;5.33;;;2.97;;
3689;SDS011;1861;50.240;8.596;2023-02-28T10:43:44;2.77;;;2.30;;
3689;SDS011;1861;50.240;8.596;2023-02-28T10:46:13;4.20;;;2.83;;
3689;SDS011;1861;50.240;8.596;2023-02-28T10:49:00;6.67;;;2.77;;
3689;SDS011;1861;50.240;8.596;2023-02-28T10:51:34;3.17;;;2.70;;
3689;SDS011;1861;50.240;8.596;2023-02-28T10:54:04;6.30;;;3.07;;
3689;SDS011;1861;50.240;8.596;2023-02-28T10:56:32;3.57;;;3.07;;
3689;SDS011;1861;50.240;8.596;2023-02-28T10:59:08;4.23;;;3.00;;
3689;SDS011;1861;50.240;8.596;2023-02-28T11:01:56;5.23;;;3.17;;
3689;SDS011;1861;50.240;8.596;2023-02-28T11:04:34;3.70;;;2.87;;
3689;SDS011;1861;50.240;8.596;2023-02-28T11:07:06;4.17;;;2.90;;
3689;SDS011;1861;50.240;8.596;2023-02-28T11:09:49;4.63;;;3.40;;
3689;SDS011;1861;50.240;8.596;2023-02-28T11:12:22;6.07;;;3.60;;
3689;SDS011;1861;50.240;8.596;2023-02-28T11:14:54;4.80;;;2.67;;
3689;SDS011;1861;50.240;8.596;2023-02-28T11:17:26;5.43;;;3.70;;
3689;SDS011;1861;50.240;8.596;2023-02-28T11:19:56;3.80;;;3.40;;
3689;SDS011;1861;50.240;8.596;2023-02-28T11:22:28;3.63;;;2.80;;
3689;SDS011;1861;50.240;8.596;2023-02-28T11:24:59;3.80;;;3.33;;
3689;SDS011;1861;50.240;8.596;2023-02-28T11:27:43;5.10;;;3.43;;
3689;SDS011;1861;50.240;8.596;2023-02-28T11:30:26;7.23;;;2.70;;
3689;SDS011;1861;50.240;8.596;2023-02-28T11:33:18;6.03;;;3.77;;
3689;SDS011;1861;50.240;8.596;2023-02-28T11:35:50;4.33;;;3.33;;
3689;SDS011;1861;50.240;8.596;2023-02-28T11:38:19;4.47;;;3.07;;
3689;SDS011;1861;50.240;8.596;2023-02-28T11:40:48;7.60;;;4.13;;
3689;SDS011;1861;50.240;8.596;2023-02-28T11:43:36;7.70;;;3.70;;
3689;SDS011;1861;50.240;8.596;2023-02-28T11:46:24;6.87;;;3.50;;
3689;SDS011;1861;50.240;8.596;2023-02-28T11:49:02;7.33;;;5.30;;
3689;SDS011;1861;50.240;8.596;2023-02-28T11:51:45;5.10;;;3.50;;
3689;SDS011;1861;50.240;8.596;2023-02-28T11:54:23;3.83;;;3.13;;
3689;SDS011;1861;50.240;8.596;2023-02-28T11:57:00;7.90;;;3.83;;
3689;SDS011;1861;50.240;8.596;2023-02-28T11:59:47;5.83;;;3.60;;
3689;SDS011;1861;50.240;8.596;2023-02-28T12:02:28;4.80;;;3.77;;
3689;SDS011;1861;50.240;8.596;2023-02-28T12:05:05;8.47;;;3.63;;
3689;SDS011;1861;50.240;8.596;2023-02-28T12:07:45;6.93;;;4.17;;
3689;SDS011;1861;50.240;8.596;2023-02-28T12:10:20;5.30;;;3.87;;
3689;SDS011;1861;50.240;8.596;2023-02-28T12:12:53;5.77;;;3.80;;
3689;SDS011;1861;50.240;8.596;2023-02-28T12:15:45;4.47;;;3.27;;
3689;SDS011;1861;50.240;8.596;2023-02-28T12:21:35;7.13;;;3.80;;
3689;SDS011;1861;50.240;8.596;2023-02-28T12:24:16;3.77;;;3.30;;
3689;SDS011;1861;50.240;8.596;2023-02-28T12:27:07;5.87;;;3.70;;
3689;SDS011;1861;50.240;8.596;2023-02-28T12:29:40;4.20;;;3.33;;
3689;SDS011;1861;50.240;8.596;2023-02-28T12:32:15;5.83;;;3.33;;
3689;SDS011;1861;50.240;8.596;2023-02-28T12:34:50;4.70;;;3.67;;
3689;SDS011;1861;50.240;8.596;2023-02-28T12:37:23;13.90;;;4.40;;
3689;SDS011;1861;50.240;8.596;2023-02-28T12:40:02;5.43;;;3.50;;
3689;SDS011;1861;50.240;8.596;2023-02-28T12:42:33;6.30;;;4.40;;
3689;SDS011;1861;50.240;8.596;2023-02-28T12:45:07;5.13;;;3.60;;
3689;SDS011;1861;50.240;8.596;2023-02-28T12:47:40;6.43;;;3.60;;
3689;SDS011;1861;50.240;8.596;2023-02-28T12:50:13;5.67;;;3.40;;
3689;SDS011;1861;50.240;8.596;2023-02-28T12:52:44;4.87;;;3.87;;
3689;SDS011;1861;50.240;8.596;2023-02-28T12:55:20;5.10;;;3.70;;
3689;SDS011;1861;50.240;8.596;2023-02-28T12:57:55;5.87;;;3.70;;
3689;SDS011;1861;50.240;8.596;2023-02-28T13:00:30;4.83;;;3.43;;
3689;SDS011;1861;50.240;8.596;2023-02-28T13:03:16;3.57;;;3.10;;
3689;SDS011;1861;50.240;8.596;2023-02-28T13:06:14;4.17;;;3.43;;
3689;SDS011;1861;50.240;8.596;2023-02-28T13:08:59;5.13;;;3.47;;
3689;SDS011;1861;50.240;8.596;2023-02-28T13:11:31;5.27;;;3.40;;
3689;SDS011;1861;50.240;8.596;2023-02-28T13:14:02;4.10;;;2.93;;
3689;SDS011;1861;50.240;8.596;2023-02-28T13:19:27;5.10;;;3.80;;
3689;SDS011;1861;50.240;8.596;2023-02-28T13:21:58;8.47;;;4.30;;
3689;SDS011;1861;50.240;8.596;2023-02-28T13:24:41;4.73;;;3.37;;
3689;SDS011;1861;50.240;8.596;2023-02-28T13:30:02;6.27;;;3.43;;
3689;SDS011;1861;50.240;8.596;2023-02-28T13:33:21;5.20;;;3.93;;
3689;SDS011;1861;50.240;8.596;2023-02-28T13:36:07;5.87;;;3.40;;
3689;SDS011;1861;50.240;8.596;2023-02-28T13:38:54;5.33;;;3.87;;
3689;SDS011;1861;50.240;8.596;2023-02-28T13:41:46;6.40;;;4.43;;
3689;SDS011;1861;50.240;8.596;2023-02-28T13:44:15;4.63;;;3.83;;
3689;SDS011;1861;50.240;8.596;2023-02-28T13:50:03;4.50;;;3.60;;
3689;SDS011;1861;50.240;8.596;2023-02-28T13:52:48;4.30;;;3.10;;
3689;SDS011;1861;50.240;8.596;2023-02-28T13:55:30;5.57;;;3.77;;
3689;SDS011;1861;50.240;8.596;2023-02-28T13:58:07;5.60;;;3.97;;
3689;SDS011;1861;50.240;8.596;2023-02-28T14:00:56;3.97;;;3.33;;
3689;SDS011;1861;50.240;8.596;2023-02-28T14:03:49;8.43;;;3.40;;
3689;SDS011;1861;50.240;8.596;2023-02-28T14:06:30;6.30;;;3.90;;
3689;SDS011;1861;50.240;8.596;2023-02-28T14:09:00;4.30;;;3.60;;
3689;SDS011;1861;50.240;8.596;2023-02-28T14:11:36;4.23;;;3.60;;
3689;SDS011;1861;50.240;8.596;2023-02-28T14:14:05;5.30;;;4.27;;
3689;SDS011;1861;50.240;8.596;2023-02-28T14:16:36;5.80;;;3.40;;
3689;SDS011;1861;50.240;8.596;2023-02-28T14:19:10;5.10;;;3.50;;
3689;SDS011;1861;50.240;8.596;2023-02-28T14:21:43;6.23;;;3.90;;
3689;SDS011;1861;50.240;8.596;2023-02-28T14:24:22;5.63;;;4.20;;
3689;SDS011;1861;50.240;8.596;2023-02-28T14:27:20;4.80;;;3.93;;
3689;SDS011;1861;50.240;8.596;2023-02-28T14:30:03;4.10;;;3.70;;
3689;SDS011;1861;50.240;8.596;2023-02-28T14:32:54;4.60;;;3.60;;
3689;SDS011;1861;50.240;8.596;2023-02-28T14:35:43;3.80;;;3.40;;
3689;SDS011;1861;50.240;8.596;2023-02-28T14:38:21;5.27;;;3.57;;
3689;SDS011;1861;50.240;8.596;2023-02-28T14:40:52;6.90;;;3.90;;
3689;SDS011;1861;50.240;8.596;2023-02-28T14:43:26;5.37;;;3.50;;
3689;SDS011;1861;50.240;8.596;2023-02-28T14:45:56;6.00;;;3.87;;
3689;SDS011;1861;50.240;8.596;2023-02-28T14:48:26;5.13;;;3.90;;
3689;SDS011;1861;50.240;8.596;2023-02-28T14:50:55;7.70;;;3.80;;
3689;SDS011;1861;50.240;8.596;2023-02-28T14:53:26;5.73;;;3.83;;
3689;SDS011;1861;50.240;8.596;2023-02-28T14:55:56;5.27;;;3.50;;
3689;SDS011;1861;50.240;8.596;2023-02-28T14:58:26;5.93;;;4.10;;
3689;SDS011;1861;50.240;8.596;2023-02-28T15:00:56;4.30;;;3.80;;
3689;SDS011;1861;50.240;8.596;2023-02-28T15:03:29;5.97;;;3.80;;
3689;SDS011;1861;50.240;8.596;2023-02-28T15:05:59;5.07;;;4.20;;
3689;SDS011;1861;50.240;8.596;2023-02-28T15:08:29;5.23;;;3.87;;
3689;SDS011;1861;50.240;8.596;2023-02-28T15:11:02;4.30;;;3.53;;
3689;SDS011;1861;50.240;8.596;2023-02-28T15:13:36;4.07;;;3.30;;
3689;SDS011;1861;50.240;8.596;2023-02-28T15:16:08;5.70;;;4.00;;
3689;SDS011;1861;50.240;8.596;2023-02-28T15:18:41;4.53;;;3.20;;
3689;SDS011;1861;50.240;8.596;2023-02-28T15:21:13;6.97;;;3.93;;
3689;SDS011;1861;50.240;8.596;2023-02-28T15:23:45;5.00;;;3.47;;
3689;SDS011;1861;50.240;8.596;2023-02-28T15:26:17;4.73;;;3.80;;
3689;SDS011;1861;50.240;8.596;2023-02-28T15:28:49;4.80;;;3.80;;
3689;SDS011;1861;50.240;8.596;2023-02-28T15:31:23;8.60;;;4.07;;
3689;SDS011;1861;50.240;8.596;2023-02-28T15:34:02;5.70;;;3.80;;
3689;SDS011;1861;50.240;8.596;2023-02-28T15:36:32;4.77;;;4.37;;
3689;SDS011;1861;50.240;8.596;2023-02-28T15:41:45;6.40;;;4.40;;
3689;SDS011;1861;50.240;8.596;2023-02-28T15:44:16;5.70;;;3.93;;
3689;SDS011;1861;50.240;8.596;2023-02-28T15:46:53;5.40;;;3.80;;
3689;SDS011;1861;50.240;8.596;2023-02-28T15:49:24;4.40;;;3.43;;
3689;SDS011;1861;50.240;8.596;2023-02-28T15:51:53;5.20;;;3.90;;
3689;SDS011;1861;50.240;8.596;2023-02-28T15:54:27;5.33;;;3.80;;
3689;SDS011;1861;50.240;8.596;2023-02-28T15:56:57;6.57;;;4.90;;
3689;SDS011;1861;50.240;8.596;2023-02-28T15:59:30;6.07;;;4.17;;
3689;SDS011;1861;50.240;8.596;2023-02-28T16:02:03;5.87;;;3.83;;
3689;SDS011;1861;50.240;8.596;2023-02-28T16:05:00;5.23;;;3.87;;
3689;SDS011;1861;50.240;8.596;2023-02-28T16:07:30;9.67;;;4.33;;